sensor_id;sensor_type;location;lat;lon;timestamp;P1;durP1;ratioP1;P2;durP2;ratioP2
51459;SDS011;37534;39.772;2.718;2023-04-06T00:00:37;6.07;;;4.13;;
51459;SDS011;37534;39.772;2.718;2023-04-06T00:03:02;4.97;;;4.00;;
51459;SDS011;37534;39.772;2.718;2023-04-06T00:05:28;7.32;;;4.80;;
51459;SDS011;37534;39.772;2.718;2023-04-06T00:07:56;9.38;;;5.80;;
51459;SDS011;37534;39.772;2.718;2023-04-06T00:10:22;6.72;;;5.30;;
51459;SDS011;37534;39.772;2.718;2023-04-06T00:12:48;10.38;;;4.60;;
51459;SDS011;37534;39.772;2.718;2023-04-06T00:15:13;7.78;;;5.28;;
51459;SDS011;37534;39.772;2.718;2023-04-06T00:17:39;4.22;;;3.58;;
51459;SDS011;37534;39.772;2.718;2023-04-06T00:20:05;5.40;;;4.13;;
51459;SDS011;37534;39.772;2.718;2023-04-06T00:22:31;5.55;;;3.63;;
51459;SDS011;37534;39.772;2.718;2023-04-06T00:24:57;3.83;;;3.30;;
51459;SDS011;37534;39.772;2.718;2023-04-06T00:27:23;11.93;;;3.33;;
51459;SDS011;37534;39.772;2.718;2023-04-06T00:29:49;4.97;;;3.15;;
51459;SDS011;37534;39.772;2.718;2023-04-06T00:32:15;4.63;;;3.42;;
51459;SDS011;37534;39.772;2.718;2023-04-06T00:34:41;6.75;;;3.92;;
51459;SDS011;37534;39.772;2.718;2023-04-06T00:37:06;3.35;;;3.03;;
51459;SDS011;37534;39.772;2.718;2023-04-06T00:39:32;5.53;;;3.97;;
51459;SDS011;37534;39.772;2.718;2023-04-06T00:41:57;7.45;;;3.60;;
51459;SDS011;37534;39.772;2.718;2023-04-06T00:44:23;3.80;;;3.00;;
51459;SDS011;37534;39.772;2.718;2023-04-06T00:46:49;2.78;;;2.53;;
51459;SDS011;37534;39.772;2.718;2023-04-06T00:49:14;3.10;;;2.75;;
51459;SDS011;37534;39.772;2.718;2023-04-06T00:51:40;4.85;;;3.28;;
51459;SDS011;37534;39.772;2.718;2023-04-06T00:54:06;3.17;;;2.13;;
51459;SDS011;37534;39.772;2.718;2023-04-06T00:56:31;2.17;;;1.98;;
51459;SDS011;37534;39.772;2.718;2023-04-06T00:58:57;3.88;;;2.03;;
51459;SDS011;37534;39.772;2.718;2023-04-06T01:01:23;1.73;;;1.63;;
51459;SDS011;37534;39.772;2.718;2023-04-06T01:03:49;2.83;;;1.92;;
51459;SDS011;37534;39.772;2.718;2023-04-06T01:06:15;2.00;;;1.88;;
51459;SDS011;37534;39.772;2.718;2023-04-06T01:08:41;6.50;;;2.20;;
51459;SDS011;37534;39.772;2.718;2023-04-06T01:11:06;5.00;;;1.90;;
51459;SDS011;37534;39.772;2.718;2023-04-06T01:13:32;3.08;;;2.30;;
51459;SDS011;37534;39.772;2.718;2023-04-06T01:15:58;6.68;;;2.20;;
51459;SDS011;37534;39.772;2.718;2023-04-06T01:18:27;2.42;;;2.15;;
51459;SDS011;37534;39.772;2.718;2023-04-06T01:20:53;1.73;;;1.58;;
51459;SDS011;37534;39.772;2.718;2023-04-06T01:23:18;2.58;;;1.92;;
51459;SDS011;37534;39.772;2.718;2023-04-06T01:25:44;3.00;;;2.15;;
51459;SDS011;37534;39.772;2.718;2023-04-06T01:28:10;2.25;;;2.00;;
51459;SDS011;37534;39.772;2.718;2023-04-06T01:30:35;2.42;;;1.92;;
51459;SDS011;37534;39.772;2.718;2023-04-06T01:33:01;3.83;;;2.75;;
51459;SDS011;37534;39.772;2.718;2023-04-06T01:35:27;3.08;;;2.50;;
51459;SDS011;37534;39.772;2.718;2023-04-06T01:37:53;2.67;;;2.45;;
51459;SDS011;37534;39.772;2.718;2023-04-06T01:40:19;2.50;;;2.30;;
51459;SDS011;37534;39.772;2.718;2023-04-06T01:42:45;3.05;;;2.42;;
51459;SDS011;37534;39.772;2.718;2023-04-06T01:45:11;4.22;;;2.53;;
51459;SDS011;37534;39.772;2.718;2023-04-06T01:47:36;3.17;;;2.75;;
51459;SDS011;37534;39.772;2.718;2023-04-06T01:50:02;3.05;;;2.80;;
51459;SDS011;37534;39.772;2.718;2023-04-06T01:52:31;3.22;;;2.92;;
51459;SDS011;37534;39.772;2.718;2023-04-06T01:54:57;3.58;;;2.95;;
51459;SDS011;37534;39.772;2.718;2023-04-06T01:57:22;3.33;;;2.70;;
51459;SDS011;37534;39.772;2.718;2023-04-06T01:59:48;3.20;;;2.90;;
51459;SDS011;37534;39.772;2.718;2023-04-06T02:02:13;2.53;;;2.33;;
51459;SDS011;37534;39.772;2.718;2023-04-06T02:04:39;3.58;;;3.25;;
51459;SDS011;37534;39.772;2.718;2023-04-06T02:07:04;6.00;;;2.80;;
51459;SDS011;37534;39.772;2.718;2023-04-06T02:09:30;3.10;;;2.80;;
51459;SDS011;37534;39.772;2.718;2023-04-06T02:11:55;4.88;;;2.70;;
51459;SDS011;37534;39.772;2.718;2023-04-06T02:14:24;5.63;;;3.30;;
51459;SDS011;37534;39.772;2.718;2023-04-06T02:16:50;5.18;;;3.47;;
51459;SDS011;37534;39.772;2.718;2023-04-06T02:19:16;3.97;;;3.20;;
51459;SDS011;37534;39.772;2.718;2023-04-06T02:21:42;4.47;;;3.33;;
51459;SDS011;37534;39.772;2.718;2023-04-06T02:24:07;5.63;;;3.83;;
51459;SDS011;37534;39.772;2.718;2023-04-06T02:26:33;6.65;;;3.72;;
51459;SDS011;37534;39.772;2.718;2023-04-06T02:28:58;5.63;;;2.70;;
51459;SDS011;37534;39.772;2.718;2023-04-06T02:31:24;8.02;;;2.88;;
51459;SDS011;37534;39.772;2.718;2023-04-06T02:33:50;4.88;;;2.75;;
51459;SDS011;37534;39.772;2.718;2023-04-06T02:36:15;14.88;;;3.35;;
51459;SDS011;37534;39.772;2.718;2023-04-06T02:38:41;4.85;;;3.20;;
51459;SDS011;37534;39.772;2.718;2023-04-06T02:41:07;6.22;;;2.67;;
51459;SDS011;37534;39.772;2.718;2023-04-06T02:43:32;5.78;;;2.90;;
51459;SDS011;37534;39.772;2.718;2023-04-06T02:45:58;3.55;;;2.85;;
51459;SDS011;37534;39.772;2.718;2023-04-06T02:48:23;5.15;;;3.00;;
51459;SDS011;37534;39.772;2.718;2023-04-06T02:50:49;1.70;;;1.58;;
51459;SDS011;37534;39.772;2.718;2023-04-06T02:53:15;4.72;;;2.03;;
51459;SDS011;37534;39.772;2.718;2023-04-06T02:55:40;3.67;;;2.30;;
51459;SDS011;37534;39.772;2.718;2023-04-06T02:58:06;7.55;;;2.78;;
51459;SDS011;37534;39.772;2.718;2023-04-06T03:00:31;2.97;;;2.58;;
51459;SDS011;37534;39.772;2.718;2023-04-06T03:02:57;6.50;;;2.53;;
51459;SDS011;37534;39.772;2.718;2023-04-06T03:05:22;3.78;;;2.78;;
51459;SDS011;37534;39.772;2.718;2023-04-06T03:07:48;3.78;;;2.88;;
51459;SDS011;37534;39.772;2.718;2023-04-06T03:10:14;4.63;;;2.20;;
51459;SDS011;37534;39.772;2.718;2023-04-06T03:12:39;2.63;;;2.13;;
51459;SDS011;37534;39.772;2.718;2023-04-06T03:15:07;3.63;;;2.58;;
51459;SDS011;37534;39.772;2.718;2023-04-06T03:17:33;6.88;;;2.00;;
51459;SDS011;37534;39.772;2.718;2023-04-06T03:19:58;2.15;;;1.88;;
51459;SDS011;37534;39.772;2.718;2023-04-06T03:22:24;3.22;;;1.63;;
51459;SDS011;37534;39.772;2.718;2023-04-06T03:24:50;3.30;;;2.22;;
51459;SDS011;37534;39.772;2.718;2023-04-06T03:27:15;2.75;;;1.75;;
51459;SDS011;37534;39.772;2.718;2023-04-06T03:29:41;1.85;;;1.73;;
51459;SDS011;37534;39.772;2.718;2023-04-06T03:32:06;2.20;;;2.00;;
51459;SDS011;37534;39.772;2.718;2023-04-06T03:34:31;2.47;;;2.00;;
51459;SDS011;37534;39.772;2.718;2023-04-06T03:36:57;3.05;;;2.08;;
51459;SDS011;37534;39.772;2.718;2023-04-06T03:39:23;1.85;;;1.45;;
51459;SDS011;37534;39.772;2.718;2023-04-06T03:41:48;2.10;;;1.30;;
51459;SDS011;37534;39.772;2.718;2023-04-06T03:44:14;1.88;;;1.73;;
51459;SDS011;37534;39.772;2.718;2023-04-06T03:46:40;1.48;;;1.38;;
51459;SDS011;37534;39.772;2.718;2023-04-06T03:49:05;2.03;;;1.50;;
51459;SDS011;37534;39.772;2.718;2023-04-06T03:51:31;1.52;;;1.42;;
51459;SDS011;37534;39.772;2.718;2023-04-06T03:53:56;2.25;;;1.60;;
51459;SDS011;37534;39.772;2.718;2023-04-06T03:56:22;2.30;;;1.55;;
51459;SDS011;37534;39.772;2.718;2023-04-06T03:58:48;1.73;;;1.63;;
51459;SDS011;37534;39.772;2.718;2023-04-06T04:01:17;4.57;;;1.60;;
51459;SDS011;37534;39.772;2.718;2023-04-06T04:03:45;1.67;;;1.48;;
51459;SDS011;37534;39.772;2.718;2023-04-06T04:06:11;2.72;;;1.63;;
51459;SDS011;37534;39.772;2.718;2023-04-06T04:08:36;3.42;;;1.50;;
51459;SDS011;37534;39.772;2.718;2023-04-06T04:11:02;1.52;;;1.42;;
51459;SDS011;37534;39.772;2.718;2023-04-06T04:13:27;2.25;;;1.38;;
51459;SDS011;37534;39.772;2.718;2023-04-06T04:15:53;0.93;;;0.93;;
51459;SDS011;37534;39.772;2.718;2023-04-06T04:18:18;2.38;;;1.90;;
51459;SDS011;37534;39.772;2.718;2023-04-06T04:20:44;2.63;;;1.60;;
51459;SDS011;37534;39.772;2.718;2023-04-06T04:23:10;3.72;;;1.88;;
51459;SDS011;37534;39.772;2.718;2023-04-06T04:25:35;1.42;;;1.33;;
51459;SDS011;37534;39.772;2.718;2023-04-06T04:28:01;2.40;;;1.83;;
51459;SDS011;37534;39.772;2.718;2023-04-06T04:30:27;1.45;;;1.35;;
51459;SDS011;37534;39.772;2.718;2023-04-06T04:32:53;2.90;;;1.67;;
51459;SDS011;37534;39.772;2.718;2023-04-06T04:35:18;5.18;;;1.63;;
51459;SDS011;37534;39.772;2.718;2023-04-06T04:37:44;1.20;;;0.98;;
51459;SDS011;37534;39.772;2.718;2023-04-06T04:40:11;4.07;;;1.33;;
51459;SDS011;37534;39.772;2.718;2023-04-06T04:42:37;1.45;;;1.27;;
51459;SDS011;37534;39.772;2.718;2023-04-06T04:45:02;1.45;;;1.35;;
51459;SDS011;37534;39.772;2.718;2023-04-06T04:47:28;2.58;;;1.48;;
51459;SDS011;37534;39.772;2.718;2023-04-06T04:49:54;1.58;;;1.48;;
51459;SDS011;37534;39.772;2.718;2023-04-06T04:52:19;3.40;;;1.30;;
51459;SDS011;37534;39.772;2.718;2023-04-06T04:54:45;2.28;;;1.48;;
51459;SDS011;37534;39.772;2.718;2023-04-06T04:57:12;4.47;;;1.48;;
51459;SDS011;37534;39.772;2.718;2023-04-06T04:59:37;1.58;;;1.48;;
51459;SDS011;37534;39.772;2.718;2023-04-06T05:02:03;2.42;;;1.90;;
51459;SDS011;37534;39.772;2.718;2023-04-06T05:04:28;3.83;;;1.13;;
51459;SDS011;37534;39.772;2.718;2023-04-06T05:07:04;2.20;;;2.00;;
51459;SDS011;37534;39.772;2.718;2023-04-06T05:09:30;1.90;;;1.70;;
51459;SDS011;37534;39.772;2.718;2023-04-06T05:11:56;2.75;;;1.50;;
51459;SDS011;37534;39.772;2.718;2023-04-06T05:14:23;2.33;;;1.63;;
51459;SDS011;37534;39.772;2.718;2023-04-06T05:16:48;2.67;;;1.73;;
51459;SDS011;37534;39.772;2.718;2023-04-06T05:19:14;1.65;;;1.55;;
51459;SDS011;37534;39.772;2.718;2023-04-06T05:21:40;4.72;;;2.28;;
51459;SDS011;37534;39.772;2.718;2023-04-06T05:24:06;1.77;;;1.65;;
51459;SDS011;37534;39.772;2.718;2023-04-06T05:26:32;1.13;;;1.02;;
51459;SDS011;37534;39.772;2.718;2023-04-06T05:28:57;1.75;;;1.65;;
51459;SDS011;37534;39.772;2.718;2023-04-06T05:31:23;10.52;;;2.03;;
51459;SDS011;37534;39.772;2.718;2023-04-06T05:33:48;6.47;;;2.17;;
51459;SDS011;37534;39.772;2.718;2023-04-06T05:36:14;1.58;;;1.48;;
51459;SDS011;37534;39.772;2.718;2023-04-06T05:38:40;5.95;;;2.10;;
51459;SDS011;37534;39.772;2.718;2023-04-06T05:41:06;7.35;;;1.42;;
51459;SDS011;37534;39.772;2.718;2023-04-06T05:43:31;2.22;;;1.63;;
51459;SDS011;37534;39.772;2.718;2023-04-06T05:45:57;2.13;;;1.77;;
51459;SDS011;37534;39.772;2.718;2023-04-06T05:48:22;3.42;;;2.17;;
51459;SDS011;37534;39.772;2.718;2023-04-06T05:50:48;3.78;;;2.08;;
51459;SDS011;37534;39.772;2.718;2023-04-06T05:53:18;3.03;;;2.20;;
51459;SDS011;37534;39.772;2.718;2023-04-06T05:55:43;2.47;;;2.00;;
51459;SDS011;37534;39.772;2.718;2023-04-06T05:58:09;2.58;;;1.55;;
51459;SDS011;37534;39.772;2.718;2023-04-06T06:00:35;3.35;;;1.90;;
51459;SDS011;37534;39.772;2.718;2023-04-06T06:03:00;1.95;;;1.63;;
51459;SDS011;37534;39.772;2.718;2023-04-06T06:05:29;4.10;;;1.48;;
51459;SDS011;37534;39.772;2.718;2023-04-06T06:07:54;2.72;;;1.65;;
51459;SDS011;37534;39.772;2.718;2023-04-06T06:10:20;4.95;;;2.08;;
51459;SDS011;37534;39.772;2.718;2023-04-06T06:12:46;4.57;;;1.92;;
51459;SDS011;37534;39.772;2.718;2023-04-06T06:15:11;10.73;;;2.28;;
51459;SDS011;37534;39.772;2.718;2023-04-06T06:17:37;4.55;;;2.42;;
51459;SDS011;37534;39.772;2.718;2023-04-06T06:20:04;4.35;;;2.63;;
51459;SDS011;37534;39.772;2.718;2023-04-06T06:22:31;2.47;;;1.70;;
51459;SDS011;37534;39.772;2.718;2023-04-06T06:24:57;3.90;;;2.50;;
51459;SDS011;37534;39.772;2.718;2023-04-06T06:27:22;4.38;;;2.03;;
51459;SDS011;37534;39.772;2.718;2023-04-06T06:29:48;2.60;;;1.95;;
51459;SDS011;37534;39.772;2.718;2023-04-06T06:32:13;2.97;;;2.50;;
51459;SDS011;37534;39.772;2.718;2023-04-06T06:34:39;8.70;;;2.83;;
51459;SDS011;37534;39.772;2.718;2023-04-06T06:37:05;6.75;;;2.35;;
51459;SDS011;37534;39.772;2.718;2023-04-06T06:39:31;4.88;;;2.17;;
51459;SDS011;37534;39.772;2.718;2023-04-06T06:41:56;5.18;;;4.03;;
51459;SDS011;37534;39.772;2.718;2023-04-06T06:44:22;11.35;;;6.00;;
51459;SDS011;37534;39.772;2.718;2023-04-06T06:46:47;4.32;;;3.90;;
51459;SDS011;37534;39.772;2.718;2023-04-06T06:49:13;7.00;;;4.18;;
51459;SDS011;37534;39.772;2.718;2023-04-06T06:51:39;2.55;;;2.35;;
51459;SDS011;37534;39.772;2.718;2023-04-06T06:54:05;5.38;;;3.08;;
51459;SDS011;37534;39.772;2.718;2023-04-06T06:56:31;4.22;;;2.65;;
51459;SDS011;37534;39.772;2.718;2023-04-06T06:58:56;3.25;;;2.53;;
51459;SDS011;37534;39.772;2.718;2023-04-06T07:01:22;3.03;;;2.83;;
51459;SDS011;37534;39.772;2.718;2023-04-06T07:03:47;3.45;;;2.70;;
51459;SDS011;37534;39.772;2.718;2023-04-06T07:06:13;4.43;;;2.55;;
51459;SDS011;37534;39.772;2.718;2023-04-06T07:08:39;2.55;;;2.30;;
51459;SDS011;37534;39.772;2.718;2023-04-06T07:11:04;3.95;;;2.78;;
51459;SDS011;37534;39.772;2.718;2023-04-06T07:13:30;4.68;;;3.60;;
51459;SDS011;37534;39.772;2.718;2023-04-06T07:15:55;6.30;;;3.10;;
51459;SDS011;37534;39.772;2.718;2023-04-06T07:18:21;4.95;;;2.80;;
51459;SDS011;37534;39.772;2.718;2023-04-06T07:20:47;32.08;;;3.72;;
51459;SDS011;37534;39.772;2.718;2023-04-06T07:23:12;10.50;;;3.67;;
51459;SDS011;37534;39.772;2.718;2023-04-06T07:25:38;3.17;;;2.67;;
51459;SDS011;37534;39.772;2.718;2023-04-06T07:28:04;6.35;;;3.60;;
51459;SDS011;37534;39.772;2.718;2023-04-06T07:30:29;4.65;;;2.90;;
51459;SDS011;37534;39.772;2.718;2023-04-06T07:32:55;2.90;;;2.53;;
51459;SDS011;37534;39.772;2.718;2023-04-06T07:35:25;5.00;;;3.17;;
51459;SDS011;37534;39.772;2.718;2023-04-06T07:37:52;7.13;;;5.22;;
51459;SDS011;37534;39.772;2.718;2023-04-06T07:40:18;8.07;;;4.93;;
51459;SDS011;37534;39.772;2.718;2023-04-06T07:42:44;6.82;;;5.43;;
51459;SDS011;37534;39.772;2.718;2023-04-06T07:45:10;45.38;;;29.17;;
51459;SDS011;37534;39.772;2.718;2023-04-06T07:47:36;25.52;;;19.83;;
51459;SDS011;37534;39.772;2.718;2023-04-06T07:50:02;12.25;;;8.57;;
51459;SDS011;37534;39.772;2.718;2023-04-06T07:52:27;8.32;;;5.90;;
51459;SDS011;37534;39.772;2.718;2023-04-06T07:54:53;12.20;;;9.82;;
51459;SDS011;37534;39.772;2.718;2023-04-06T07:57:19;22.27;;;17.20;;
51459;SDS011;37534;39.772;2.718;2023-04-06T07:59:45;23.42;;;15.88;;
51459;SDS011;37534;39.772;2.718;2023-04-06T08:02:10;29.02;;;23.52;;
51459;SDS011;37534;39.772;2.718;2023-04-06T08:04:36;25.35;;;20.08;;
51459;SDS011;37534;39.772;2.718;2023-04-06T08:07:01;36.17;;;22.52;;
51459;SDS011;37534;39.772;2.718;2023-04-06T08:09:27;20.20;;;13.98;;
51459;SDS011;37534;39.772;2.718;2023-04-06T08:11:53;56.15;;;39.85;;
51459;SDS011;37534;39.772;2.718;2023-04-06T08:14:18;21.90;;;17.38;;
51459;SDS011;37534;39.772;2.718;2023-04-06T08:16:45;19.50;;;12.23;;
51459;SDS011;37534;39.772;2.718;2023-04-06T08:19:10;23.35;;;16.52;;
51459;SDS011;37534;39.772;2.718;2023-04-06T08:21:36;15.27;;;11.65;;
51459;SDS011;37534;39.772;2.718;2023-04-06T08:24:02;10.90;;;9.10;;
51459;SDS011;37534;39.772;2.718;2023-04-06T08:26:27;11.45;;;6.63;;
51459;SDS011;37534;39.772;2.718;2023-04-06T08:28:53;7.97;;;4.85;;
51459;SDS011;37534;39.772;2.718;2023-04-06T08:31:19;5.00;;;3.80;;
51459;SDS011;37534;39.772;2.718;2023-04-06T08:33:44;4.07;;;2.95;;
51459;SDS011;37534;39.772;2.718;2023-04-06T08:36:10;5.03;;;3.80;;
51459;SDS011;37534;39.772;2.718;2023-04-06T08:38:37;5.80;;;3.08;;
51459;SDS011;37534;39.772;2.718;2023-04-06T08:41:10;3.85;;;3.40;;
51459;SDS011;37534;39.772;2.718;2023-04-06T08:43:38;4.75;;;2.35;;
51459;SDS011;37534;39.772;2.718;2023-04-06T08:46:14;3.35;;;2.60;;
51459;SDS011;37534;39.772;2.718;2023-04-06T08:48:41;3.58;;;2.83;;
51459;SDS011;37534;39.772;2.718;2023-04-06T08:51:08;4.32;;;3.67;;
51459;SDS011;37534;39.772;2.718;2023-04-06T08:53:35;8.88;;;4.75;;
51459;SDS011;37534;39.772;2.718;2023-04-06T08:56:01;17.52;;;9.88;;
51459;SDS011;37534;39.772;2.718;2023-04-06T08:58:33;4.85;;;3.85;;
51459;SDS011;37534;39.772;2.718;2023-04-06T09:01:05;3.53;;;1.80;;
51459;SDS011;37534;39.772;2.718;2023-04-06T09:03:39;3.30;;;2.13;;
51459;SDS011;37534;39.772;2.718;2023-04-06T09:06:05;3.30;;;2.78;;
51459;SDS011;37534;39.772;2.718;2023-04-06T09:08:35;2.30;;;1.60;;
51459;SDS011;37534;39.772;2.718;2023-04-06T09:11:03;2.67;;;2.08;;
51459;SDS011;37534;39.772;2.718;2023-04-06T09:13:29;1.70;;;1.60;;
51459;SDS011;37534;39.772;2.718;2023-04-06T09:15:58;1.98;;;1.50;;
51459;SDS011;37534;39.772;2.718;2023-04-06T09:18:28;2.47;;;1.70;;
51459;SDS011;37534;39.772;2.718;2023-04-06T09:20:59;3.35;;;1.63;;
51459;SDS011;37534;39.772;2.718;2023-04-06T09:23:28;13.38;;;2.50;;
51459;SDS011;37534;39.772;2.718;2023-04-06T09:26:13;8.40;;;2.88;;
51459;SDS011;37534;39.772;2.718;2023-04-06T09:28:47;5.63;;;2.55;;
51459;SDS011;37534;39.772;2.718;2023-04-06T09:31:15;2.65;;;2.17;;
51459;SDS011;37534;39.772;2.718;2023-04-06T09:33:42;5.40;;;2.13;;
51459;SDS011;37534;39.772;2.718;2023-04-06T09:36:10;3.10;;;2.08;;
51459;SDS011;37534;39.772;2.718;2023-04-06T09:38:36;4.53;;;2.35;;
51459;SDS011;37534;39.772;2.718;2023-04-06T09:41:27;2.92;;;1.80;;
51459;SDS011;37534;39.772;2.718;2023-04-06T09:44:09;6.13;;;1.60;;
51459;SDS011;37534;39.772;2.718;2023-04-06T09:46:39;2.38;;;1.63;;
51459;SDS011;37534;39.772;2.718;2023-04-06T09:49:08;1.60;;;1.30;;
51459;SDS011;37534;39.772;2.718;2023-04-06T09:51:45;2.90;;;1.75;;
51459;SDS011;37534;39.772;2.718;2023-04-06T09:54:15;5.85;;;2.05;;
51459;SDS011;37534;39.772;2.718;2023-04-06T10:01:55;3.97;;;2.08;;
51459;SDS011;37534;39.772;2.718;2023-04-06T10:04:30;1.50;;;1.00;;
51459;SDS011;37534;39.772;2.718;2023-04-06T10:07:06;2.97;;;1.52;;
51459;SDS011;37534;39.772;2.718;2023-04-06T10:09:36;3.95;;;1.95;;
51459;SDS011;37534;39.772;2.718;2023-04-06T10:12:03;4.78;;;1.83;;
51459;SDS011;37534;39.772;2.718;2023-04-06T10:14:31;4.78;;;2.03;;
51459;SDS011;37534;39.772;2.718;2023-04-06T10:17:05;2.08;;;1.27;;
51459;SDS011;37534;39.772;2.718;2023-04-06T10:22:18;1.10;;;1.00;;
51459;SDS011;37534;39.772;2.718;2023-04-06T10:25:31;13.88;;;1.58;;
51459;SDS011;37534;39.772;2.718;2023-04-06T10:28:08;2.40;;;1.20;;
51459;SDS011;37534;39.772;2.718;2023-04-06T10:30:41;2.97;;;1.50;;
51459;SDS011;37534;39.772;2.718;2023-04-06T10:33:14;3.35;;;1.70;;
51459;SDS011;37534;39.772;2.718;2023-04-06T10:35:42;2.55;;;1.25;;
51459;SDS011;37534;39.772;2.718;2023-04-06T10:38:07;3.70;;;1.55;;
51459;SDS011;37534;39.772;2.718;2023-04-06T10:40:37;2.78;;;1.15;;
51459;SDS011;37534;39.772;2.718;2023-04-06T10:43:07;0.93;;;0.88;;
51459;SDS011;37534;39.772;2.718;2023-04-06T10:45:33;4.25;;;1.42;;
51459;SDS011;37534;39.772;2.718;2023-04-06T10:47:59;5.80;;;1.23;;
51459;SDS011;37534;39.772;2.718;2023-04-06T10:50:25;4.75;;;1.27;;
51459;SDS011;37534;39.772;2.718;2023-04-06T10:53:00;2.33;;;1.42;;
51459;SDS011;37534;39.772;2.718;2023-04-06T10:55:30;1.25;;;1.15;;
51459;SDS011;37534;39.772;2.718;2023-04-06T10:57:56;3.58;;;1.20;;
51459;SDS011;37534;39.772;2.718;2023-04-06T11:00:21;0.70;;;0.70;;
51459;SDS011;37534;39.772;2.718;2023-04-06T11:02:47;2.17;;;1.20;;
51459;SDS011;37534;39.772;2.718;2023-04-06T11:05:14;1.52;;;1.00;;
51459;SDS011;37534;39.772;2.718;2023-04-06T11:07:40;1.85;;;0.80;;
51459;SDS011;37534;39.772;2.718;2023-04-06T11:10:06;3.67;;;0.88;;
51459;SDS011;37534;39.772;2.718;2023-04-06T11:12:32;1.40;;;0.93;;
51459;SDS011;37534;39.772;2.718;2023-04-06T11:15:00;1.63;;;0.90;;
51459;SDS011;37534;39.772;2.718;2023-04-06T11:17:29;1.75;;;1.08;;
51459;SDS011;37534;39.772;2.718;2023-04-06T11:19:58;1.70;;;0.90;;
51459;SDS011;37534;39.772;2.718;2023-04-06T11:22:24;1.58;;;1.00;;
51459;SDS011;37534;39.772;2.718;2023-04-06T11:24:50;3.80;;;1.00;;
51459;SDS011;37534;39.772;2.718;2023-04-06T11:27:16;2.33;;;1.17;;
51459;SDS011;37534;39.772;2.718;2023-04-06T11:29:43;1.58;;;0.85;;
51459;SDS011;37534;39.772;2.718;2023-04-06T11:32:11;1.08;;;0.90;;
51459;SDS011;37534;39.772;2.718;2023-04-06T11:34:44;2.03;;;1.10;;
51459;SDS011;37534;39.772;2.718;2023-04-06T11:37:13;1.45;;;1.02;;
51459;SDS011;37534;39.772;2.718;2023-04-06T11:39:51;2.08;;;1.15;;
51459;SDS011;37534;39.772;2.718;2023-04-06T11:42:26;5.05;;;0.90;;
51459;SDS011;37534;39.772;2.718;2023-04-06T11:44:59;0.80;;;0.60;;
51459;SDS011;37534;39.772;2.718;2023-04-06T11:49:55;2.33;;;1.20;;
51459;SDS011;37534;39.772;2.718;2023-04-06T11:52:24;1.17;;;0.80;;
51459;SDS011;37534;39.772;2.718;2023-04-06T11:54:53;1.05;;;0.95;;
51459;SDS011;37534;39.772;2.718;2023-04-06T11:57:20;3.30;;;1.35;;
51459;SDS011;37534;39.772;2.718;2023-04-06T11:59:48;1.20;;;0.80;;
51459;SDS011;37534;39.772;2.718;2023-04-06T12:02:13;1.83;;;0.98;;
51459;SDS011;37534;39.772;2.718;2023-04-06T12:04:39;4.30;;;1.00;;
51459;SDS011;37534;39.772;2.718;2023-04-06T12:07:04;3.03;;;0.90;;
51459;SDS011;37534;39.772;2.718;2023-04-06T12:09:30;1.80;;;0.75;;
51459;SDS011;37534;39.772;2.718;2023-04-06T12:11:56;6.65;;;1.13;;
51459;SDS011;37534;39.772;2.718;2023-04-06T12:14:22;5.03;;;0.80;;
51459;SDS011;37534;39.772;2.718;2023-04-06T12:16:48;4.18;;;0.90;;
51459;SDS011;37534;39.772;2.718;2023-04-06T12:19:13;1.17;;;0.90;;
51459;SDS011;37534;39.772;2.718;2023-04-06T12:21:39;5.47;;;1.00;;
51459;SDS011;37534;39.772;2.718;2023-04-06T12:24:05;1.35;;;0.93;;
51459;SDS011;37534;39.772;2.718;2023-04-06T12:26:31;1.70;;;1.05;;
51459;SDS011;37534;39.772;2.718;2023-04-06T12:29:01;0.88;;;0.75;;
51459;SDS011;37534;39.772;2.718;2023-04-06T12:31:32;2.63;;;1.20;;
51459;SDS011;37534;39.772;2.718;2023-04-06T12:33:59;1.90;;;0.80;;
51459;SDS011;37534;39.772;2.718;2023-04-06T12:36:26;2.83;;;1.35;;
51459;SDS011;37534;39.772;2.718;2023-04-06T12:38:51;2.70;;;1.48;;
51459;SDS011;37534;39.772;2.718;2023-04-06T12:41:17;1.27;;;0.95;;
51459;SDS011;37534;39.772;2.718;2023-04-06T12:43:43;2.42;;;1.73;;
51459;SDS011;37534;39.772;2.718;2023-04-06T12:46:10;5.35;;;1.50;;
51459;SDS011;37534;39.772;2.718;2023-04-06T12:48:36;1.85;;;1.13;;
51459;SDS011;37534;39.772;2.718;2023-04-06T12:51:03;4.82;;;1.05;;
51459;SDS011;37534;39.772;2.718;2023-04-06T12:53:30;1.35;;;1.25;;
51459;SDS011;37534;39.772;2.718;2023-04-06T12:56:00;1.30;;;0.75;;
51459;SDS011;37534;39.772;2.718;2023-04-06T12:58:36;0.85;;;0.80;;
51459;SDS011;37534;39.772;2.718;2023-04-06T13:01:05;3.13;;;0.80;;
51459;SDS011;37534;39.772;2.718;2023-04-06T13:03:32;2.50;;;1.50;;
51459;SDS011;37534;39.772;2.718;2023-04-06T13:05:58;1.58;;;1.00;;
51459;SDS011;37534;39.772;2.718;2023-04-06T13:08:25;3.65;;;1.00;;
51459;SDS011;37534;39.772;2.718;2023-04-06T13:10:51;0.70;;;0.70;;
51459;SDS011;37534;39.772;2.718;2023-04-06T13:13:20;1.75;;;0.88;;
51459;SDS011;37534;39.772;2.718;2023-04-06T13:15:48;3.97;;;1.17;;
51459;SDS011;37534;39.772;2.718;2023-04-06T13:18:13;1.05;;;0.65;;
51459;SDS011;37534;39.772;2.718;2023-04-06T13:20:39;2.80;;;1.23;;
51459;SDS011;37534;39.772;2.718;2023-04-06T13:23:04;7.25;;;1.98;;
51459;SDS011;37534;39.772;2.718;2023-04-06T13:25:30;1.20;;;0.95;;
51459;SDS011;37534;39.772;2.718;2023-04-06T13:27:57;2.80;;;1.00;;
51459;SDS011;37534;39.772;2.718;2023-04-06T13:30:23;1.55;;;1.20;;
51459;SDS011;37534;39.772;2.718;2023-04-06T13:32:49;1.30;;;1.00;;
51459;SDS011;37534;39.772;2.718;2023-04-06T13:35:14;2.78;;;0.98;;
51459;SDS011;37534;39.772;2.718;2023-04-06T13:37:41;1.27;;;0.90;;
51459;SDS011;37534;39.772;2.718;2023-04-06T13:40:10;1.08;;;0.82;;
51459;SDS011;37534;39.772;2.718;2023-04-06T13:42:36;1.85;;;0.70;;
51459;SDS011;37534;39.772;2.718;2023-04-06T13:45:05;1.75;;;0.73;;
51459;SDS011;37534;39.772;2.718;2023-04-06T13:47:31;1.35;;;0.82;;
51459;SDS011;37534;39.772;2.718;2023-04-06T13:49:56;1.13;;;0.80;;
51459;SDS011;37534;39.772;2.718;2023-04-06T13:52:22;1.88;;;0.82;;
51459;SDS011;37534;39.772;2.718;2023-04-06T13:54:50;2.60;;;1.20;;
51459;SDS011;37534;39.772;2.718;2023-04-06T13:57:16;1.40;;;0.95;;
51459;SDS011;37534;39.772;2.718;2023-04-06T13:59:42;4.72;;;1.00;;
51459;SDS011;37534;39.772;2.718;2023-04-06T14:02:08;1.27;;;0.85;;
51459;SDS011;37534;39.772;2.718;2023-04-06T14:04:35;1.15;;;0.95;;
51459;SDS011;37534;39.772;2.718;2023-04-06T14:07:01;1.75;;;1.00;;
51459;SDS011;37534;39.772;2.718;2023-04-06T14:09:27;1.48;;;0.68;;
51459;SDS011;37534;39.772;2.718;2023-04-06T14:11:53;2.90;;;0.60;;
51459;SDS011;37534;39.772;2.718;2023-04-06T14:14:19;1.23;;;0.93;;
51459;SDS011;37534;39.772;2.718;2023-04-06T14:16:46;2.58;;;0.80;;
51459;SDS011;37534;39.772;2.718;2023-04-06T14:19:15;5.43;;;0.93;;
51459;SDS011;37534;39.772;2.718;2023-04-06T14:21:46;3.60;;;1.40;;
51459;SDS011;37534;39.772;2.718;2023-04-06T14:24:12;3.28;;;1.15;;
51459;SDS011;37534;39.772;2.718;2023-04-06T14:26:39;1.20;;;1.00;;
51459;SDS011;37534;39.772;2.718;2023-04-06T14:29:06;3.00;;;0.95;;
51459;SDS011;37534;39.772;2.718;2023-04-06T14:31:33;8.68;;;1.13;;
51459;SDS011;37534;39.772;2.718;2023-04-06T14:34:00;0.63;;;0.63;;
51459;SDS011;37534;39.772;2.718;2023-04-06T14:36:27;0.85;;;0.82;;
51459;SDS011;37534;39.772;2.718;2023-04-06T14:38:54;3.72;;;0.77;;
51459;SDS011;37534;39.772;2.718;2023-04-06T14:41:22;2.38;;;0.55;;
51459;SDS011;37534;39.772;2.718;2023-04-06T14:43:49;2.53;;;1.13;;
51459;SDS011;37534;39.772;2.718;2023-04-06T14:46:17;1.85;;;0.93;;
51459;SDS011;37534;39.772;2.718;2023-04-06T14:48:43;2.67;;;0.85;;
51459;SDS011;37534;39.772;2.718;2023-04-06T14:51:10;4.28;;;0.70;;
51459;SDS011;37534;39.772;2.718;2023-04-06T14:53:36;1.67;;;1.00;;